sensor_id;sensor_type;location;lat;lon;timestamp;temperature;humidity
6940;DHT22;3509;48.510;9.076;2022-07-29T00:01:20;16.70;99.90
6940;DHT22;3509;48.510;9.076;2022-07-29T00:03:46;16.70;99.90
6940;DHT22;3509;48.510;9.076;2022-07-29T00:06:11;16.60;99.90
6940;DHT22;3509;48.510;9.076;2022-07-29T00:08:37;16.60;99.90
6940;DHT22;3509;48.510;9.076;2022-07-29T00:11:03;16.50;99.90
6940;DHT22;3509;48.510;9.076;2022-07-29T00:13:29;16.50;99.90
6940;DHT22;3509;48.510;9.076;2022-07-29T00:15:55;16.50;99.90
6940;DHT22;3509;48.510;9.076;2022-07-29T00:18:20;16.40;99.90
6940;DHT22;3509;48.510;9.076;2022-07-29T00:20:46;16.30;99.90
6940;DHT22;3509;48.510;9.076;2022-07-29T00:23:12;16.30;99.90
6940;DHT22;3509;48.510;9.076;2022-07-29T00:25:37;16.30;99.90
6940;DHT22;3509;48.510;9.076;2022-07-29T00:28:03;16.20;99.90
6940;DHT22;3509;48.510;9.076;2022-07-29T00:30:29;16.10;99.90
6940;DHT22;3509;48.510;9.076;2022-07-29T00:32:54;16.10;99.90
6940;DHT22;3509;48.510;9.076;2022-07-29T00:35:20;16.00;99.90
6940;DHT22;3509;48.510;9.076;2022-07-29T00:38:04;15.90;99.90
6940;DHT22;3509;48.510;9.076;2022-07-29T00:40:29;15.90;99.90
6940;DHT22;3509;48.510;9.076;2022-07-29T00:42:55;15.90;99.90
6940;DHT22;3509;48.510;9.076;2022-07-29T00:45:21;15.90;99.90
6940;DHT22;3509;48.510;9.076;2022-07-29T00:47:47;16.00;99.90
6940;DHT22;3509;48.510;9.076;2022-07-29T00:50:13;16.00;99.90
6940;DHT22;3509;48.510;9.076;2022-07-29T00:52:40;16.00;99.90
6940;DHT22;3509;48.510;9.076;2022-07-29T00:55:09;15.80;99.90
6940;DHT22;3509;48.510;9.076;2022-07-29T00:57:35;15.90;99.90
6940;DHT22;3509;48.510;9.076;2022-07-29T01:00:04;15.90;99.90
6940;DHT22;3509;48.510;9.076;2022-07-29T01:02:30;15.80;99.90
6940;DHT22;3509;48.510;9.076;2022-07-29T01:04:56;15.70;99.90
6940;DHT22;3509;48.510;9.076;2022-07-29T01:07:23;15.70;99.90
6940;DHT22;3509;48.510;9.076;2022-07-29T01:09:50;15.70;99.90
6940;DHT22;3509;48.510;9.076;2022-07-29T01:12:18;15.70;99.90
6940;DHT22;3509;48.510;9.076;2022-07-29T01:14:47;15.60;99.90
6940;DHT22;3509;48.510;9.076;2022-07-29T01:20:07;15.70;99.90
6940;DHT22;3509;48.510;9.076;2022-07-29T01:29:59;15.60;99.90
6940;DHT22;3509;48.510;9.076;2022-07-29T01:32:29;15.50;99.90
6940;DHT22;3509;48.510;9.076;2022-07-29T01:35:22;15.40;99.90
6940;DHT22;3509;48.510;9.076;2022-07-29T01:37:55;15.40;99.90
6940;DHT22;3509;48.510;9.076;2022-07-29T01:42:56;15.50;99.90
6940;DHT22;3509;48.510;9.076;2022-07-29T01:45:43;15.40;99.90
6940;DHT22;3509;48.510;9.076;2022-07-29T01:48:15;15.40;99.90
6940;DHT22;3509;48.510;9.076;2022-07-29T01:50:51;15.30;99.90
6940;DHT22;3509;48.510;9.076;2022-07-29T01:53:39;15.30;99.90
6940;DHT22;3509;48.510;9.076;2022-07-29T01:56:09;15.40;99.90
6940;DHT22;3509;48.510;9.076;2022-07-29T01:58:37;15.40;99.90
6940;DHT22;3509;48.510;9.076;2022-07-29T02:01:05;15.40;99.90
6940;DHT22;3509;48.510;9.076;2022-07-29T02:03:32;15.30;99.90
6940;DHT22;3509;48.510;9.076;2022-07-29T02:06:00;15.30;99.90
6940;DHT22;3509;48.510;9.076;2022-07-29T02:08:28;15.30;99.90
6940;DHT22;3509;48.510;9.076;2022-07-29T02:10:55;15.30;99.90
6940;DHT22;3509;48.510;9.076;2022-07-29T02:13:21;15.30;99.90
6940;DHT22;3509;48.510;9.076;2022-07-29T02:15:50;15.40;99.90
6940;DHT22;3509;48.510;9.076;2022-07-29T02:18:19;15.50;99.90
6940;DHT22;3509;48.510;9.076;2022-07-29T02:20:48;15.50;99.90
6940;DHT22;3509;48.510;9.076;2022-07-29T02:23:17;15.60;99.90
6940;DHT22;3509;48.510;9.076;2022-07-29T02:25:47;15.70;99.90
6940;DHT22;3509;48.510;9.076;2022-07-29T02:28:14;15.80;99.90
6940;DHT22;3509;48.510;9.076;2022-07-29T02:30:42;15.70;99.90
6940;DHT22;3509;48.510;9.076;2022-07-29T02:33:10;15.70;99.90
6940;DHT22;3509;48.510;9.076;2022-07-29T02:35:39;15.70;99.90
6940;DHT22;3509;48.510;9.076;2022-07-29T02:38:05;15.80;99.90
6940;DHT22;3509;48.510;9.076;2022-07-29T02:40:50;15.80;99.90
6940;DHT22;3509;48.510;9.076;2022-07-29T02:43:17;15.80;99.90
6940;DHT22;3509;48.510;9.076;2022-07-29T02:48:16;15.90;99.90
6940;DHT22;3509;48.510;9.076;2022-07-29T02:50:53;15.80;99.90
6940;DHT22;3509;48.510;9.076;2022-07-29T02:53:24;15.80;99.90
6940;DHT22;3509;48.510;9.076;2022-07-29T02:55:59;15.90;99.90
6940;DHT22;3509;48.510;9.076;2022-07-29T02:58:49;15.80;99.90
6940;DHT22;3509;48.510;9.076;2022-07-29T03:01:23;15.80;99.90
6940;DHT22;3509;48.510;9.076;2022-07-29T03:03:51;15.80;99.90
6940;DHT22;3509;48.510;9.076;2022-07-29T03:06:20;15.80;99.90
6940;DHT22;3509;48.510;9.076;2022-07-29T03:08:47;15.80;99.90
6940;DHT22;3509;48.510;9.076;2022-07-29T03:11:13;15.80;99.90
6940;DHT22;3509;48.510;9.076;2022-07-29T03:13:40;15.80;99.90
6940;DHT22;3509;48.510;9.076;2022-07-29T03:16:07;15.80;99.90
6940;DHT22;3509;48.510;9.076;2022-07-29T03:18:34;15.80;99.90
6940;DHT22;3509;48.510;9.076;2022-07-29T03:21:00;15.80;99.90
6940;DHT22;3509;48.510;9.076;2022-07-29T03:23:26;15.80;99.90
6940;DHT22;3509;48.510;9.076;2022-07-29T03:25:53;15.70;99.90
6940;DHT22;3509;48.510;9.076;2022-07-29T03:28:20;15.60;99.90
6940;DHT22;3509;48.510;9.076;2022-07-29T03:30:46;15.50;99.90
6940;DHT22;3509;48.510;9.076;2022-07-29T03:33:11;15.40;99.90
6940;DHT22;3509;48.510;9.076;2022-07-29T03:35:37;15.30;99.90
6940;DHT22;3509;48.510;9.076;2022-07-29T03:38:03;15.30;99.90
6940;DHT22;3509;48.510;9.076;2022-07-29T03:40:51;15.20;99.90
6940;DHT22;3509;48.510;9.076;2022-07-29T03:43:18;15.20;99.90
6940;DHT22;3509;48.510;9.076;2022-07-29T03:45:47;15.10;99.90
6940;DHT22;3509;48.510;9.076;2022-07-29T03:48:17;15.10;99.90
6940;DHT22;3509;48.510;9.076;2022-07-29T03:50:45;15.00;99.90
6940;DHT22;3509;48.510;9.076;2022-07-29T03:53:11;14.90;99.90
6940;DHT22;3509;48.510;9.076;2022-07-29T03:55:41;14.80;99.90
6940;DHT22;3509;48.510;9.076;2022-07-29T03:58:07;14.80;99.90
6940;DHT22;3509;48.510;9.076;2022-07-29T04:00:34;14.80;99.90
6940;DHT22;3509;48.510;9.076;2022-07-29T04:03:01;14.80;99.90
6940;DHT22;3509;48.510;9.076;2022-07-29T04:05:28;14.70;99.90
6940;DHT22;3509;48.510;9.076;2022-07-29T04:07:54;14.70;99.90
6940;DHT22;3509;48.510;9.076;2022-07-29T04:10:20;14.70;99.90
6940;DHT22;3509;48.510;9.076;2022-07-29T04:12:46;14.70;99.90
6940;DHT22;3509;48.510;9.076;2022-07-29T04:15:12;14.70;99.90
6940;DHT22;3509;48.510;9.076;2022-07-29T04:17:37;14.70;99.90
6940;DHT22;3509;48.510;9.076;2022-07-29T04:20:04;14.70;99.90
6940;DHT22;3509;48.510;9.076;2022-07-29T04:22:30;14.70;99.90
6940;DHT22;3509;48.510;9.076;2022-07-29T04:24:56;14.60;99.90
6940;DHT22;3509;48.510;9.076;2022-07-29T04:27:21;14.60;99.90
6940;DHT22;3509;48.510;9.076;2022-07-29T04:29:47;14.60;99.90
6940;DHT22;3509;48.510;9.076;2022-07-29T04:32:13;14.70;99.90
6940;DHT22;3509;48.510;9.076;2022-07-29T04:34:38;14.70;99.90
6940;DHT22;3509;48.510;9.076;2022-07-29T04:37:04;14.70;99.90
6940;DHT22;3509;48.510;9.076;2022-07-29T04:39:30;14.80;99.90
6940;DHT22;3509;48.510;9.076;2022-07-29T04:41:55;14.80;99.90
6940;DHT22;3509;48.510;9.076;2022-07-29T04:44:21;14.90;99.90
6940;DHT22;3509;48.510;9.076;2022-07-29T04:46:47;14.90;99.90
6940;DHT22;3509;48.510;9.076;2022-07-29T04:49:13;14.90;99.90
6940;DHT22;3509;48.510;9.076;2022-07-29T04:51:38;15.00;99.90
6940;DHT22;3509;48.510;9.076;2022-07-29T04:54:04;15.00;99.90
6940;DHT22;3509;48.510;9.076;2022-07-29T04:56:30;15.10;99.90
6940;DHT22;3509;48.510;9.076;2022-07-29T04:58:56;15.20;99.90
6940;DHT22;3509;48.510;9.076;2022-07-29T05:01:21;15.30;99.90
6940;DHT22;3509;48.510;9.076;2022-07-29T05:03:47;15.40;99.90
6940;DHT22;3509;48.510;9.076;2022-07-29T05:06:13;15.50;99.90
6940;DHT22;3509;48.510;9.076;2022-07-29T05:08:39;15.60;99.90
6940;DHT22;3509;48.510;9.076;2022-07-29T05:11:04;15.80;99.90
6940;DHT22;3509;48.510;9.076;2022-07-29T05:13:30;15.80;99.90
6940;DHT22;3509;48.510;9.076;2022-07-29T05:15:56;16.00;99.90
6940;DHT22;3509;48.510;9.076;2022-07-29T05:18:24;16.20;99.90
6940;DHT22;3509;48.510;9.076;2022-07-29T05:20:50;16.60;99.90
6940;DHT22;3509;48.510;9.076;2022-07-29T05:23:15;16.90;99.90
6940;DHT22;3509;48.510;9.076;2022-07-29T05:25:41;16.90;99.90
6940;DHT22;3509;48.510;9.076;2022-07-29T05:28:07;17.10;99.90
6940;DHT22;3509;48.510;9.076;2022-07-29T05:30:33;17.70;99.90
6940;DHT22;3509;48.510;9.076;2022-07-29T05:32:58;17.70;99.90
6940;DHT22;3509;48.510;9.076;2022-07-29T05:35:24;18.20;99.90
6940;DHT22;3509;48.510;9.076;2022-07-29T05:37:49;18.50;99.90
6940;DHT22;3509;48.510;9.076;2022-07-29T05:40:15;18.90;99.90
6940;DHT22;3509;48.510;9.076;2022-07-29T05:42:41;20.10;99.90
6940;DHT22;3509;48.510;9.076;2022-07-29T05:45:07;21.50;99.90
6940;DHT22;3509;48.510;9.076;2022-07-29T05:47:33;22.30;99.90
6940;DHT22;3509;48.510;9.076;2022-07-29T05:49:59;22.20;99.90
6940;DHT22;3509;48.510;9.076;2022-07-29T05:52:25;21.30;99.90
6940;DHT22;3509;48.510;9.076;2022-07-29T05:54:50;20.80;99.90
6940;DHT22;3509;48.510;9.076;2022-07-29T05:57:17;20.50;99.90
6940;DHT22;3509;48.510;9.076;2022-07-29T05:59:43;20.40;99.90
6940;DHT22;3509;48.510;9.076;2022-07-29T06:02:09;20.70;99.90
6940;DHT22;3509;48.510;9.076;2022-07-29T06:04:34;20.50;99.90
6940;DHT22;3509;48.510;9.076;2022-07-29T06:07:00;20.40;99.90
6940;DHT22;3509;48.510;9.076;2022-07-29T06:09:27;20.20;99.90
6940;DHT22;3509;48.510;9.076;2022-07-29T06:11:52;20.80;99.90
6940;DHT22;3509;48.510;9.076;2022-07-29T06:14:18;21.70;99.90
6940;DHT22;3509;48.510;9.076;2022-07-29T06:16:44;22.40;99.90
6940;DHT22;3509;48.510;9.076;2022-07-29T06:19:09;23.10;99.90
6940;DHT22;3509;48.510;9.076;2022-07-29T06:21:35;23.20;99.90
6940;DHT22;3509;48.510;9.076;2022-07-29T06:24:01;22.80;99.90
6940;DHT22;3509;48.510;9.076;2022-07-29T06:26:27;22.60;99.90
6940;DHT22;3509;48.510;9.076;2022-07-29T06:28:52;23.30;99.90
6940;DHT22;3509;48.510;9.076;2022-07-29T06:31:18;24.10;99.90
6940;DHT22;3509;48.510;9.076;2022-07-29T06:33:44;24.80;99.90
6940;DHT22;3509;48.510;9.076;2022-07-29T06:36:09;25.80;99.90
6940;DHT22;3509;48.510;9.076;2022-07-29T06:38:35;26.70;97.80
6940;DHT22;3509;48.510;9.076;2022-07-29T06:41:01;27.40;96.00
6940;DHT22;3509;48.510;9.076;2022-07-29T06:43:33;27.70;94.80
6940;DHT22;3509;48.510;9.076;2022-07-29T06:46:02;27.90;93.60
6940;DHT22;3509;48.510;9.076;2022-07-29T06:48:29;28.10;91.70
6940;DHT22;3509;48.510;9.076;2022-07-29T06:50:55;28.00;91.50
6940;DHT22;3509;48.510;9.076;2022-07-29T06:53:20;28.10;91.30
6940;DHT22;3509;48.510;9.076;2022-07-29T06:55:46;28.80;91.00
6940;DHT22;3509;48.510;9.076;2022-07-29T06:58:12;29.30;89.50
6940;DHT22;3509;48.510;9.076;2022-07-29T07:00:39;29.50;88.70
6940;DHT22;3509;48.510;9.076;2022-07-29T07:03:05;29.40;86.90
6940;DHT22;3509;48.510;9.076;2022-07-29T07:05:30;29.50;85.90
6940;DHT22;3509;48.510;9.076;2022-07-29T07:07:56;29.30;85.90
6940;DHT22;3509;48.510;9.076;2022-07-29T07:10:22;28.70;89.30
6940;DHT22;3509;48.510;9.076;2022-07-29T07:12:47;28.80;88.50
6940;DHT22;3509;48.510;9.076;2022-07-29T07:15:13;28.20;87.70
6940;DHT22;3509;48.510;9.076;2022-07-29T07:17:38;27.00;92.10
6940;DHT22;3509;48.510;9.076;2022-07-29T07:20:05;26.10;94.60
6940;DHT22;3509;48.510;9.076;2022-07-29T07:22:31;26.00;95.50
6940;DHT22;3509;48.510;9.076;2022-07-29T07:24:57;26.50;94.70
6940;DHT22;3509;48.510;9.076;2022-07-29T07:27:23;26.90;93.50
6940;DHT22;3509;48.510;9.076;2022-07-29T07:29:48;26.90;94.20
6940;DHT22;3509;48.510;9.076;2022-07-29T07:32:14;27.50;92.80
6940;DHT22;3509;48.510;9.076;2022-07-29T07:34:42;28.50;90.80
6940;DHT22;3509;48.510;9.076;2022-07-29T07:37:08;28.90;90.00
6940;DHT22;3509;48.510;9.076;2022-07-29T07:39:34;29.30;89.00
6940;DHT22;3509;48.510;9.076;2022-07-29T07:42:00;30.00;86.80
6940;DHT22;3509;48.510;9.076;2022-07-29T07:44:25;29.50;86.10
6940;DHT22;3509;48.510;9.076;2022-07-29T07:46:51;29.80;86.00
6940;DHT22;3509;48.510;9.076;2022-07-29T07:49:17;30.30;86.00
6940;DHT22;3509;48.510;9.076;2022-07-29T07:51:43;30.30;85.80
6940;DHT22;3509;48.510;9.076;2022-07-29T07:54:08;30.10;86.40
6940;DHT22;3509;48.510;9.076;2022-07-29T07:56:34;29.90;87.40
6940;DHT22;3509;48.510;9.076;2022-07-29T07:59:00;30.40;84.70
6940;DHT22;3509;48.510;9.076;2022-07-29T08:01:25;30.60;83.50
6940;DHT22;3509;48.510;9.076;2022-07-29T08:03:51;30.60;87.00
6940;DHT22;3509;48.510;9.076;2022-07-29T08:06:16;30.70;85.60
6940;DHT22;3509;48.510;9.076;2022-07-29T08:08:42;31.10;83.90
6940;DHT22;3509;48.510;9.076;2022-07-29T08:11:08;31.40;79.70
6940;DHT22;3509;48.510;9.076;2022-07-29T08:13:33;31.60;81.50
6940;DHT22;3509;48.510;9.076;2022-07-29T08:15:59;32.40;76.50
6940;DHT22;3509;48.510;9.076;2022-07-29T08:18:29;33.20;73.70
6940;DHT22;3509;48.510;9.076;2022-07-29T08:20:55;33.40;70.60
6940;DHT22;3509;48.510;9.076;2022-07-29T08:23:21;33.60;68.60
6940;DHT22;3509;48.510;9.076;2022-07-29T08:25:49;33.00;69.30
6940;DHT22;3509;48.510;9.076;2022-07-29T08:28:15;32.60;69.90
6940;DHT22;3509;48.510;9.076;2022-07-29T08:30:40;32.50;70.40
6940;DHT22;3509;48.510;9.076;2022-07-29T08:33:06;32.20;69.20
6940;DHT22;3509;48.510;9.076;2022-07-29T08:35:32;33.00;68.00
6940;DHT22;3509;48.510;9.076;2022-07-29T08:37:57;33.40;63.60
6940;DHT22;3509;48.510;9.076;2022-07-29T08:40:23;33.20;67.50
6940;DHT22;3509;48.510;9.076;2022-07-29T08:42:50;33.70;64.20
6940;DHT22;3509;48.510;9.076;2022-07-29T08:45:16;33.90;65.40
6940;DHT22;3509;48.510;9.076;2022-07-29T08:47:45;34.30;62.00
6940;DHT22;3509;48.510;9.076;2022-07-29T08:50:11;34.80;59.60
6940;DHT22;3509;48.510;9.076;2022-07-29T08:52:39;35.30;56.70
6940;DHT22;3509;48.510;9.076;2022-07-29T08:55:09;35.50;54.90
6940;DHT22;3509;48.510;9.076;2022-07-29T08:57:35;35.60;55.50
6940;DHT22;3509;48.510;9.076;2022-07-29T09:00:04;35.90;52.10
6940;DHT22;3509;48.510;9.076;2022-07-29T09:02:40;36.60;52.00
6940;DHT22;3509;48.510;9.076;2022-07-29T09:05:07;36.00;53.00
6940;DHT22;3509;48.510;9.076;2022-07-29T09:07:33;36.20;48.20
6940;DHT22;3509;48.510;9.076;2022-07-29T09:10:00;36.10;50.40
6940;DHT22;3509;48.510;9.076;2022-07-29T09:12:26;36.40;48.50
6940;DHT22;3509;48.510;9.076;2022-07-29T09:14:52;35.40;46.00
6940;DHT22;3509;48.510;9.076;2022-07-29T09:17:17;35.30;49.90
6940;DHT22;3509;48.510;9.076;2022-07-29T09:19:45;34.90;50.50
6940;DHT22;3509;48.510;9.076;2022-07-29T09:22:10;34.90;49.60
6940;DHT22;3509;48.510;9.076;2022-07-29T09:24:38;34.10;49.90
6940;DHT22;3509;48.510;9.076;2022-07-29T09:27:25;33.40;53.50
6940;DHT22;3509;48.510;9.076;2022-07-29T09:30:05;33.40;51.50
6940;DHT22;3509;48.510;9.076;2022-07-29T09:32:32;33.00;53.20
6940;DHT22;3509;48.510;9.076;2022-07-29T09:35:18;32.60;54.40
6940;DHT22;3509;48.510;9.076;2022-07-29T09:37:45;32.30;55.20
6940;DHT22;3509;48.510;9.076;2022-07-29T09:40:32;32.20;53.40
6940;DHT22;3509;48.510;9.076;2022-07-29T09:42:57;32.00;55.90
6940;DHT22;3509;48.510;9.076;2022-07-29T09:45:34;31.70;56.40
6940;DHT22;3509;48.510;9.076;2022-07-29T09:48:16;31.50;57.10
6940;DHT22;3509;48.510;9.076;2022-07-29T09:50:44;31.80;54.90
6940;DHT22;3509;48.510;9.076;2022-07-29T09:53:10;32.20;55.00
6940;DHT22;3509;48.510;9.076;2022-07-29T09:55:49;32.90;54.40
6940;DHT22;3509;48.510;9.076;2022-07-29T09:58:20;33.30;53.50
6940;DHT22;3509;48.510;9.076;2022-07-29T10:00:47;33.50;49.60
6940;DHT22;3509;48.510;9.076;2022-07-29T10:03:15;34.20;50.10
6940;DHT22;3509;48.510;9.076;2022-07-29T10:05:41;34.80;48.50
6940;DHT22;3509;48.510;9.076;2022-07-29T10:08:08;34.60;52.00
6940;DHT22;3509;48.510;9.076;2022-07-29T10:10:37;34.30;50.10
6940;DHT22;3509;48.510;9.076;2022-07-29T10:13:07;34.30;50.30
6940;DHT22;3509;48.510;9.076;2022-07-29T10:15:35;35.00;47.20
6940;DHT22;3509;48.510;9.076;2022-07-29T10:18:06;35.20;51.20
6940;DHT22;3509;48.510;9.076;2022-07-29T10:20:32;35.80;47.90
6940;DHT22;3509;48.510;9.076;2022-07-29T10:22:58;36.50;45.10
6940;DHT22;3509;48.510;9.076;2022-07-29T10:25:24;36.80;45.00
6940;DHT22;3509;48.510;9.076;2022-07-29T10:27:51;36.20;45.70
6940;DHT22;3509;48.510;9.076;2022-07-29T10:30:18;35.10;46.50
6940;DHT22;3509;48.510;9.076;2022-07-29T10:43:29;30.50;55.30
6940;DHT22;3509;48.510;9.076;2022-07-29T10:45:59;30.20;56.80
6940;DHT22;3509;48.510;9.076;2022-07-29T10:48:25;30.30;58.90
6940;DHT22;3509;48.510;9.076;2022-07-29T10:50:59;30.40;61.90
6940;DHT22;3509;48.510;9.076;2022-07-29T10:56:28;30.40;58.00
6940;DHT22;3509;48.510;9.076;2022-07-29T11:01:52;30.40;54.70
6940;DHT22;3509;48.510;9.076;2022-07-29T11:07:10;32.40;51.10
6940;DHT22;3509;48.510;9.076;2022-07-29T11:09:37;33.40;50.50
6940;DHT22;3509;48.510;9.076;2022-07-29T11:12:45;33.40;48.40
6940;DHT22;3509;48.510;9.076;2022-07-29T11:14:59;33.10;49.40
6940;DHT22;3509;48.510;9.076;2022-07-29T11:17:27;33.00;50.50
6940;DHT22;3509;48.510;9.076;2022-07-29T11:22:57;32.10;50.30
6940;DHT22;3509;48.510;9.076;2022-07-29T11:25:24;30.80;52.70
6940;DHT22;3509;48.510;9.076;2022-07-29T11:27:52;30.00;54.40
6940;DHT22;3509;48.510;9.076;2022-07-29T11:30:18;29.60;56.10
6940;DHT22;3509;48.510;9.076;2022-07-29T11:32:44;30.10;54.30
6940;DHT22;3509;48.510;9.076;2022-07-29T11:43:55;32.40;48.20
6940;DHT22;3509;48.510;9.076;2022-07-29T11:49:08;33.10;46.50
6940;DHT22;3509;48.510;9.076;2022-07-29T11:51:36;33.50;45.50
6940;DHT22;3509;48.510;9.076;2022-07-29T11:54:02;33.00;46.50
6940;DHT22;3509;48.510;9.076;2022-07-29T11:56:31;32.20;49.10
6940;DHT22;3509;48.510;9.076;2022-07-29T11:59:07;31.90;46.70
6940;DHT22;3509;48.510;9.076;2022-07-29T12:01:35;31.20;47.40
6940;DHT22;3509;48.510;9.076;2022-07-29T12:04:07;30.60;48.80
6940;DHT22;3509;48.510;9.076;2022-07-29T12:06:36;30.00;49.30
6940;DHT22;3509;48.510;9.076;2022-07-29T12:09:08;29.40;50.60
6940;DHT22;3509;48.510;9.076;2022-07-29T12:11:34;29.10;51.70
6940;DHT22;3509;48.510;9.076;2022-07-29T12:13:59;28.80;53.00
6940;DHT22;3509;48.510;9.076;2022-07-29T12:16:35;28.60;52.80
6940;DHT22;3509;48.510;9.076;2022-07-29T12:19:03;28.50;54.20
6940;DHT22;3509;48.510;9.076;2022-07-29T12:21:52;28.50;54.50
6940;DHT22;3509;48.510;9.076;2022-07-29T12:24:18;28.20;54.90
6940;DHT22;3509;48.510;9.076;2022-07-29T12:26:52;27.60;57.00
6940;DHT22;3509;48.510;9.076;2022-07-29T12:29:18;27.30;58.20
6940;DHT22;3509;48.510;9.076;2022-07-29T12:31:44;27.30;58.90
6940;DHT22;3509;48.510;9.076;2022-07-29T12:34:13;27.30;59.70
6940;DHT22;3509;48.510;9.076;2022-07-29T12:36:40;27.70;59.20
6940;DHT22;3509;48.510;9.076;2022-07-29T12:39:07;28.20;59.30
6940;DHT22;3509;48.510;9.076;2022-07-29T12:41:34;28.40;58.90
6940;DHT22;3509;48.510;9.076;2022-07-29T12:44:00;28.50;58.20
6940;DHT22;3509;48.510;9.076;2022-07-29T12:46:26;28.50;58.40
6940;DHT22;3509;48.510;9.076;2022-07-29T12:48:53;28.70;57.60
6940;DHT22;3509;48.510;9.076;2022-07-29T12:51:36;28.80;57.80
6940;DHT22;3509;48.510;9.076;2022-07-29T12:54:11;29.10;58.20
6940;DHT22;3509;48.510;9.076;2022-07-29T12:56:40;29.00;58.40
6940;DHT22;3509;48.510;9.076;2022-07-29T12:59:20;28.30;59.90
6940;DHT22;3509;48.510;9.076;2022-07-29T13:01:47;27.70;59.80
6940;DHT22;3509;48.510;9.076;2022-07-29T13:04:28;27.50;62.10
6940;DHT22;3509;48.510;9.076;2022-07-29T13:06:59;26.90;62.70
6940;DHT22;3509;48.510;9.076;2022-07-29T13:09:37;26.60;65.90
6940;DHT22;3509;48.510;9.076;2022-07-29T13:12:07;26.20;68.70
6940;DHT22;3509;48.510;9.076;2022-07-29T13:14:40;25.60;71.70
6940;DHT22;3509;48.510;9.076;2022-07-29T13:17:11;25.60;72.40
6940;DHT22;3509;48.510;9.076;2022-07-29T13:22:07;25.30;72.70
6940;DHT22;3509;48.510;9.076;2022-07-29T13:24:33;25.20;69.20
6940;DHT22;3509;48.510;9.076;2022-07-29T13:26:59;25.20;66.30
6940;DHT22;3509;48.510;9.076;2022-07-29T13:29:25;25.20;66.90
6940;DHT22;3509;48.510;9.076;2022-07-29T13:31:52;25.30;68.20
6940;DHT22;3509;48.510;9.076;2022-07-29T13:34:18;25.60;67.40
6940;DHT22;3509;48.510;9.076;2022-07-29T13:36:45;25.80;66.00
6940;DHT22;3509;48.510;9.076;2022-07-29T13:39:11;26.00;65.30
6940;DHT22;3509;48.510;9.076;2022-07-29T13:41:37;26.30;64.40
6940;DHT22;3509;48.510;9.076;2022-07-29T13:44:03;26.40;64.90
6940;DHT22;3509;48.510;9.076;2022-07-29T13:46:28;26.60;65.70
6940;DHT22;3509;48.510;9.076;2022-07-29T13:48:54;26.80;65.20
6940;DHT22;3509;48.510;9.076;2022-07-29T13:51:20;26.40;66.80
6940;DHT22;3509;48.510;9.076;2022-07-29T13:53:45;26.10;66.30
6940;DHT22;3509;48.510;9.076;2022-07-29T13:56:11;25.90;65.30
6940;DHT22;3509;48.510;9.076;2022-07-29T13:58:36;25.40;67.50
6940;DHT22;3509;48.510;9.076;2022-07-29T14:01:02;25.30;69.60
6940;DHT22;3509;48.510;9.076;2022-07-29T14:03:28;25.40;69.80
6940;DHT22;3509;48.510;9.076;2022-07-29T14:05:53;25.40;71.70
6940;DHT22;3509;48.510;9.076;2022-07-29T14:08:19;25.20;72.00
6940;DHT22;3509;48.510;9.076;2022-07-29T14:10:45;24.90;71.40
6940;DHT22;3509;48.510;9.076;2022-07-29T14:13:10;25.00;69.60
6940;DHT22;3509;48.510;9.076;2022-07-29T14:15:36;25.00;69.40
6940;DHT22;3509;48.510;9.076;2022-07-29T14:18:02;25.10;69.00
6940;DHT22;3509;48.510;9.076;2022-07-29T14:20:27;25.00;69.20
6940;DHT22;3509;48.510;9.076;2022-07-29T14:22:55;24.80;68.20
6940;DHT22;3509;48.510;9.076;2022-07-29T14:25:22;25.00;69.40
6940;DHT22;3509;48.510;9.076;2022-07-29T14:27:47;25.10;67.30
6940;DHT22;3509;48.510;9.076;2022-07-29T14:30:13;25.10;68.90
6940;DHT22;3509;48.510;9.076;2022-07-29T14:32:39;25.20;69.20
6940;DHT22;3509;48.510;9.076;2022-07-29T14:35:06;25.40;68.80
6940;DHT22;3509;48.510;9.076;2022-07-29T14:37:32;25.60;67.20
6940;DHT22;3509;48.510;9.076;2022-07-29T14:39:57;25.60;69.20
6940;DHT22;3509;48.510;9.076;2022-07-29T14:42:27;25.60;69.50
6940;DHT22;3509;48.510;9.076;2022-07-29T14:44:52;25.80;71.10
6940;DHT22;3509;48.510;9.076;2022-07-29T14:47:18;25.80;69.20
6940;DHT22;3509;48.510;9.076;2022-07-29T14:49:44;25.50;70.30
6940;DHT22;3509;48.510;9.076;2022-07-29T14:52:10;25.10;71.00
6940;DHT22;3509;48.510;9.076;2022-07-29T14:54:36;25.10;72.10
6940;DHT22;3509;48.510;9.076;2022-07-29T14:57:01;25.10;71.50
6940;DHT22;3509;48.510;9.076;2022-07-29T14:59:27;24.90;70.90
6940;DHT22;3509;48.510;9.076;2022-07-29T15:01:53;24.80;72.90
6940;DHT22;3509;48.510;9.076;2022-07-29T15:04:19;24.80;71.70
6940;DHT22;3509;48.510;9.076;2022-07-29T15:06:44;24.90;72.20
6940;DHT22;3509;48.510;9.076;2022-07-29T15:09:10;24.90;72.50
6940;DHT22;3509;48.510;9.076;2022-07-29T15:11:36;25.00;73.50
6940;DHT22;3509;48.510;9.076;2022-07-29T15:14:01;25.10;73.20
6940;DHT22;3509;48.510;9.076;2022-07-29T15:16:27;25.30;72.90
6940;DHT22;3509;48.510;9.076;2022-07-29T15:18:53;25.20;73.10
6940;DHT22;3509;48.510;9.076;2022-07-29T15:21:18;25.30;72.90
6940;DHT22;3509;48.510;9.076;2022-07-29T15:23:44;25.40;72.50
6940;DHT22;3509;48.510;9.076;2022-07-29T15:26:10;25.40;72.20
6940;DHT22;3509;48.510;9.076;2022-07-29T15:28:35;25.50;71.90
6940;DHT22;3509;48.510;9.076;2022-07-29T15:31:01;25.60;72.00
6940;DHT22;3509;48.510;9.076;2022-07-29T15:33:27;25.70;73.60
6940;DHT22;3509;48.510;9.076;2022-07-29T15:35:53;25.70;73.60
6940;DHT22;3509;48.510;9.076;2022-07-29T15:38:18;25.80;72.70
6940;DHT22;3509;48.510;9.076;2022-07-29T15:40:44;25.60;73.40
6940;DHT22;3509;48.510;9.076;2022-07-29T15:43:11;25.50;74.30
6940;DHT22;3509;48.510;9.076;2022-07-29T15:45:39;25.40;75.20
6940;DHT22;3509;48.510;9.076;2022-07-29T15:48:06;25.20;75.80
6940;DHT22;3509;48.510;9.076;2022-07-29T15:50:32;25.20;76.20
6940;DHT22;3509;48.510;9.076;2022-07-29T15:52:59;25.30;76.10
6940;DHT22;3509;48.510;9.076;2022-07-29T15:55:25;25.30;75.70
6940;DHT22;3509;48.510;9.076;2022-07-29T15:57:50;25.30;80.80
6940;DHT22;3509;48.510;9.076;2022-07-29T16:00:16;25.40;79.70
6940;DHT22;3509;48.510;9.076;2022-07-29T16:02:43;25.50;78.40
6940;DHT22;3509;48.510;9.076;2022-07-29T16:05:09;25.60;77.40
6940;DHT22;3509;48.510;9.076;2022-07-29T16:07:35;25.50;78.20
6940;DHT22;3509;48.510;9.076;2022-07-29T16:10:01;25.70;79.50
6940;DHT22;3509;48.510;9.076;2022-07-29T16:12:26;25.70;76.50
6940;DHT22;3509;48.510;9.076;2022-07-29T16:14:52;25.60;75.70
6940;DHT22;3509;48.510;9.076;2022-07-29T16:17:18;25.60;75.10
6940;DHT22;3509;48.510;9.076;2022-07-29T16:19:44;25.60;75.90
6940;DHT22;3509;48.510;9.076;2022-07-29T16:22:10;25.70;75.40
6940;DHT22;3509;48.510;9.076;2022-07-29T16:24:36;25.60;77.70
6940;DHT22;3509;48.510;9.076;2022-07-29T16:27:01;25.80;75.80
6940;DHT22;3509;48.510;9.076;2022-07-29T16:29:27;25.80;76.50
6940;DHT22;3509;48.510;9.076;2022-07-29T16:31:53;25.80;74.20
6940;DHT22;3509;48.510;9.076;2022-07-29T16:34:19;25.70;76.20
6940;DHT22;3509;48.510;9.076;2022-07-29T16:36:44;25.70;78.10
6940;DHT22;3509;48.510;9.076;2022-07-29T16:39:10;25.60;78.10
6940;DHT22;3509;48.510;9.076;2022-07-29T16:41:37;25.60;78.00
6940;DHT22;3509;48.510;9.076;2022-07-29T16:44:03;25.40;80.90
6940;DHT22;3509;48.510;9.076;2022-07-29T16:46:29;25.40;82.40
6940;DHT22;3509;48.510;9.076;2022-07-29T16:48:55;25.30;81.90
6940;DHT22;3509;48.510;9.076;2022-07-29T16:51:20;25.20;82.80
6940;DHT22;3509;48.510;9.076;2022-07-29T16:53:46;25.20;83.20
6940;DHT22;3509;48.510;9.076;2022-07-29T16:56:12;25.20;82.50